createdAt,value
2019-01-17T00:00:15.966Z,0.80
2019-01-17T00:02:54.263Z,0.80
2019-01-17T00:05:30.057Z,0.80
2019-01-17T00:08:04.351Z,0.80
2019-01-17T00:10:36.123Z,0.70
2019-01-17T00:13:15.792Z,0.70
2019-01-17T00:16:04.054Z,0.60
2019-01-17T00:18:37.326Z,0.50
2019-01-17T00:21:11.359Z,0.40
2019-01-17T00:23:48.966Z,0.40
2019-01-17T00:26:27.518Z,0.30
2019-01-17T00:29:07.837Z,0.30
2019-01-17T00:31:42.192Z,0.30
2019-01-17T00:34:22.601Z,0.20
2019-01-17T00:36:54.447Z,0.20
2019-01-17T00:39:31.952Z,0.10
2019-01-17T00:42:15.949Z,0.00
2019-01-17T00:44:58.764Z,0.00
2019-01-17T00:47:35.930Z,-0.10
2019-01-17T00:50:28.326Z,-0.20
2019-01-17T00:53:00.038Z,-0.20
2019-01-17T00:58:15.579Z,-0.20
2019-01-17T01:00:52.809Z,-0.20
2019-01-17T01:03:27.135Z,-0.20
2019-01-17T01:05:58.570Z,-0.20
2019-01-17T01:08:32.856Z,-0.30
2019-01-17T01:11:13.023Z,-0.40
2019-01-17T01:13:58.054Z,-0.40
2019-01-17T01:16:39.551Z,-0.30
2019-01-17T01:19:28.283Z,-0.30
2019-01-17T01:22:02.148Z,-0.30
2019-01-17T01:24:34.778Z,-0.40
2019-01-17T01:27:21.385Z,-0.40
2019-01-17T01:29:55.217Z,-0.30
2019-01-17T01:32:32.430Z,-0.30
2019-01-17T01:35:06.725Z,-0.30
2019-01-17T01:37:43.538Z,-0.30
2019-01-17T01:40:32.531Z,-0.20
2019-01-17T01:43:23.417Z,-0.20
2019-01-17T01:46:08.472Z,-0.20
2019-01-17T01:48:44.346Z,-0.10
2019-01-17T01:51:16.699Z,-0.10
2019-01-17T01:53:48.226Z,-0.10
2019-01-17T01:56:19.591Z,0.00
2019-01-17T01:58:50.778Z,0.00
2019-01-17T02:01:20.662Z,0.10
2019-01-17T02:03:50.632Z,0.10
2019-01-17T02:06:23.544Z,0.10
2019-01-17T02:08:53.359Z,0.20
2019-01-17T02:11:30.666Z,0.20
2019-01-17T02:14:23.643Z,0.20
2019-01-17T02:16:55.198Z,0.30
2019-01-17T02:19:26.580Z,0.40
2019-01-17T02:21:56.498Z,0.40
2019-01-17T02:24:28.582Z,0.40
2019-01-17T02:26:57.797Z,0.50
2019-01-17T02:29:27.595Z,0.50
2019-01-17T02:31:57.446Z,0.50
2019-01-17T02:34:27.227Z,0.50
2019-01-17T02:36:57.222Z,0.40
2019-01-17T02:39:27.986Z,0.50
2019-01-17T02:42:02.248Z,0.50
2019-01-17T02:44:33.581Z,0.40
2019-01-17T02:47:03.399Z,0.40
2019-01-17T02:49:33.214Z,0.40
2019-01-17T02:52:03.029Z,0.40
2019-01-17T02:54:35.813Z,0.40
2019-01-17T02:57:04.426Z,0.30
2019-01-17T02:59:34.259Z,0.30
2019-01-17T03:02:04.209Z,0.30
2019-01-17T03:04:34.151Z,0.30
2019-01-17T03:07:04.374Z,0.30
2019-01-17T03:09:34.197Z,0.30
2019-01-17T03:12:03.999Z,0.30
2019-01-17T03:14:47.355Z,0.30
2019-01-17T03:17:17.160Z,0.30
2019-01-17T03:19:47.026Z,0.30
2019-01-17T03:22:16.826Z,0.30
2019-01-17T03:24:46.680Z,0.40
2019-01-17T03:27:16.453Z,0.40
2019-01-17T03:29:46.272Z,0.40
2019-01-17T03:32:16.122Z,0.40
2019-01-17T03:34:45.938Z,0.40
2019-01-17T03:37:15.752Z,0.40
2019-01-17T03:39:45.633Z,0.40
2019-01-17T03:42:15.509Z,0.50
2019-01-17T03:44:45.336Z,0.40
2019-01-17T03:47:31.219Z,0.30
2019-01-17T03:50:01.401Z,0.30
2019-01-17T03:52:31.248Z,0.30
2019-01-17T03:55:01.030Z,0.30
2019-01-17T03:57:30.837Z,0.20
2019-01-17T04:00:00.695Z,0.30
2019-01-17T04:02:30.509Z,0.30
2019-01-17T04:05:00.664Z,0.30
2019-01-17T04:07:30.574Z,0.30
2019-01-17T04:10:00.395Z,0.30
2019-01-17T04:12:30.224Z,0.30
2019-01-17T04:15:00.199Z,0.40
2019-01-17T04:17:31.512Z,0.50
2019-01-17T04:20:01.500Z,0.50
2019-01-17T04:22:31.374Z,0.40
2019-01-17T04:25:01.168Z,0.40
2019-01-17T04:27:31.032Z,0.40
2019-01-17T04:30:00.846Z,0.40
2019-01-17T04:32:30.610Z,0.40
2019-01-17T04:35:00.823Z,0.40
2019-01-17T04:37:30.677Z,0.40
2019-01-17T04:40:01.573Z,0.40
2019-01-17T04:42:31.395Z,0.40
2019-01-17T04:45:01.235Z,0.50
2019-01-17T04:47:32.117Z,0.40
2019-01-17T04:50:01.931Z,0.50
2019-01-17T04:52:31.721Z,0.50
2019-01-17T04:55:05.515Z,0.50
2019-01-17T04:57:32.945Z,0.40
2019-01-17T05:00:03.014Z,0.50
2019-01-17T05:05:06.951Z,0.50
2019-01-17T05:07:36.768Z,0.40
2019-01-17T05:10:09.467Z,0.40
2019-01-17T05:12:40.430Z,0.40
2019-01-17T05:15:11.496Z,0.40
2019-01-17T05:17:41.315Z,0.40
2019-01-17T05:20:16.767Z,0.40
2019-01-17T05:22:46.534Z,0.50
2019-01-17T05:25:16.312Z,0.40
2019-01-17T05:27:47.702Z,0.40
2019-01-17T05:30:25.561Z,0.40
2019-01-17T05:32:55.395Z,0.40
2019-01-17T05:35:25.228Z,0.40
2019-01-17T05:37:55.119Z,0.40
2019-01-17T05:40:25.494Z,0.40
2019-01-17T05:42:55.558Z,0.30
2019-01-17T05:45:25.430Z,0.30
2019-01-17T05:47:55.390Z,0.30
2019-01-17T05:50:25.395Z,0.30
2019-01-17T05:52:55.430Z,0.40
2019-01-17T05:55:25.285Z,0.30
2019-01-17T05:57:55.269Z,0.40
2019-01-17T06:00:25.423Z,0.30
2019-01-17T06:02:55.470Z,0.30
2019-01-17T06:05:25.323Z,0.30
2019-01-17T06:07:55.163Z,0.30
2019-01-17T06:10:25.035Z,0.20
2019-01-17T06:12:55.392Z,0.10
2019-01-17T06:15:25.437Z,0.10
2019-01-17T06:17:58.115Z,0.10
2019-01-17T06:20:29.480Z,0.20
2019-01-17T06:23:00.789Z,0.20
2019-01-17T06:25:30.909Z,0.10
2019-01-17T06:28:00.884Z,0.00
2019-01-17T06:30:30.732Z,0.10
2019-01-17T06:33:01.629Z,0.20
2019-01-17T06:35:32.992Z,0.10
2019-01-17T06:38:02.872Z,0.10
2019-01-17T06:40:32.992Z,0.10
2019-01-17T06:43:03.551Z,0.10
2019-01-17T06:45:33.360Z,0.30
2019-01-17T06:48:03.237Z,0.20
2019-01-17T06:50:33.159Z,0.20
2019-01-17T06:53:02.995Z,0.20
2019-01-17T06:55:34.595Z,0.30
2019-01-17T06:58:04.630Z,0.40
2019-01-17T07:00:34.599Z,0.40
2019-01-17T07:03:04.469Z,0.40
2019-01-17T07:05:34.911Z,0.40
2019-01-17T07:08:04.839Z,0.40
2019-01-17T07:10:34.653Z,0.50
2019-01-17T07:13:04.600Z,0.50
2019-01-17T07:15:34.493Z,0.60
2019-01-17T07:18:04.396Z,0.70
2019-01-17T07:20:34.310Z,0.80
2019-01-17T07:23:04.150Z,0.80
2019-01-17T07:25:33.990Z,1.00
2019-01-17T07:28:03.912Z,1.10
2019-01-17T07:30:33.696Z,1.20
2019-01-17T07:33:03.632Z,1.30
2019-01-17T07:35:34.401Z,1.50
2019-01-17T07:38:04.800Z,1.70
2019-01-17T07:40:34.676Z,2.00
2019-01-17T07:43:04.630Z,2.70
2019-01-17T07:45:34.431Z,3.30
2019-01-17T07:48:05.040Z,3.80
2019-01-17T07:50:34.914Z,5.10
2019-01-17T07:53:06.520Z,6.80
2019-01-17T07:55:36.758Z,8.20
2019-01-17T07:58:06.673Z,8.20
2019-01-17T08:00:51.638Z,8.20
2019-01-17T08:03:22.798Z,8.40
2019-01-17T08:05:53.431Z,8.20
2019-01-17T08:08:23.219Z,8.00
2019-01-17T08:10:53.317Z,8.10
2019-01-17T08:13:23.189Z,8.30
2019-01-17T08:15:54.280Z,9.10
2019-01-17T08:18:24.994Z,9.50
2019-01-17T08:20:55.011Z,9.00
2019-01-17T08:23:24.800Z,8.10
2019-01-17T08:25:54.712Z,8.90
2019-01-17T08:28:24.655Z,9.90
2019-01-17T08:30:54.879Z,11.30
2019-01-17T08:33:24.871Z,12.80
2019-01-17T08:35:54.691Z,13.20
2019-01-17T08:38:25.442Z,13.20
2019-01-17T08:40:59.071Z,12.90
2019-01-17T08:43:29.486Z,13.00
2019-01-17T08:45:59.672Z,13.00
2019-01-17T08:48:29.531Z,12.20
2019-01-17T08:50:59.459Z,12.60
2019-01-17T08:53:31.076Z,14.20
2019-01-17T08:56:01.111Z,14.40
2019-01-17T08:58:31.179Z,13.30
2019-01-17T09:01:02.889Z,14.50
2019-01-17T09:03:32.780Z,14.40
2019-01-17T09:06:02.639Z,14.60
2019-01-17T09:08:32.481Z,14.20
2019-01-17T09:11:02.272Z,14.00
2019-01-17T09:13:35.072Z,13.20
2019-01-17T09:16:06.511Z,13.20
2019-01-17T09:18:39.678Z,12.50
2019-01-17T09:21:09.559Z,11.70
2019-01-17T09:23:39.319Z,12.60
2019-01-17T09:26:09.170Z,12.50
2019-01-17T09:28:38.987Z,11.70
2019-01-17T09:31:08.903Z,10.70
2019-01-17T09:33:38.763Z,10.30
2019-01-17T09:36:08.564Z,10.50
2019-01-17T09:38:39.952Z,11.50
2019-01-17T09:41:09.770Z,11.00
2019-01-17T09:43:41.431Z,10.10
2019-01-17T09:46:11.234Z,10.30
2019-01-17T09:48:41.154Z,10.70
2019-01-17T09:51:10.959Z,11.50
2019-01-17T09:53:40.799Z,11.20
2019-01-17T09:56:14.997Z,10.90
2019-01-17T09:58:44.960Z,11.10
2019-01-17T10:01:14.757Z,11.80
2019-01-17T10:03:46.119Z,13.20
2019-01-17T10:06:15.991Z,14.30
2019-01-17T10:08:47.471Z,14.10
2019-01-17T10:11:17.287Z,13.30
2019-01-17T10:13:47.111Z,12.90
2019-01-17T10:16:22.526Z,13.30
2019-01-17T10:19:13.651Z,14.20
2019-01-17T10:22:01.242Z,14.00
2019-01-17T10:24:42.597Z,13.80
2019-01-17T10:27:21.103Z,14.80
2019-01-17T10:30:21.012Z,14.40
2019-01-17T10:32:59.329Z,14.40
2019-01-17T10:35:48.725Z,14.30
2019-01-17T10:38:30.131Z,14.90
2019-01-17T10:41:05.356Z,14.70
2019-01-17T10:43:48.577Z,12.60
2019-01-17T10:46:45.551Z,13.30
2019-01-17T10:49:33.999Z,11.80
2019-01-17T10:52:31.797Z,12.20
2019-01-17T10:55:40.150Z,11.80
2019-01-17T10:58:31.131Z,11.30
2019-01-17T11:01:33.319Z,11.60
2019-01-17T11:04:08.839Z,11.50
2019-01-17T11:06:49.350Z,9.90
2019-01-17T11:09:34.159Z,9.70
2019-01-17T11:12:20.928Z,8.90
2019-01-17T11:15:10.050Z,8.80
2019-01-17T11:18:20.031Z,8.60
2019-01-17T11:20:55.944Z,8.50
2019-01-17T11:23:31.208Z,8.50
2019-01-17T11:26:12.944Z,8.50
2019-01-17T11:28:57.822Z,8.50
2019-01-17T11:31:42.215Z,8.60
2019-01-17T11:34:17.980Z,8.70
2019-01-17T11:37:02.776Z,8.40
2019-01-17T11:39:56.510Z,8.30
2019-01-17T11:42:34.977Z,8.40
2019-01-17T11:45:19.437Z,8.50
2019-01-17T11:48:18.456Z,8.20
2019-01-17T11:50:53.828Z,8.40
2019-01-17T11:53:51.026Z,8.70
2019-01-17T11:56:33.545Z,10.10
2019-01-17T11:59:24.325Z,11.60
2019-01-17T12:02:13.984Z,11.20
2019-01-17T12:04:42.625Z,10.80
2019-01-17T12:07:15.238Z,11.40
2019-01-17T12:09:47.737Z,11.80
2019-01-17T12:12:19.286Z,13.30
2019-01-17T12:14:49.104Z,13.90
2019-01-17T12:17:18.944Z,14.40
2019-01-17T12:19:48.777Z,13.90
2019-01-17T12:22:18.696Z,14.00
2019-01-17T12:24:48.537Z,14.00
2019-01-17T12:27:18.338Z,14.10
2019-01-17T12:29:48.180Z,14.70
2019-01-17T12:33:27.825Z,14.50
2019-01-17T12:35:57.630Z,14.00
2019-01-17T12:38:27.455Z,13.50
2019-01-17T12:40:57.667Z,12.60
2019-01-17T12:43:27.504Z,12.80
2019-01-17T13:58:30.744Z,10.60
2019-01-17T14:01:00.572Z,9.90
2019-01-17T14:03:30.456Z,9.40
2019-01-17T14:06:00.217Z,9.30
2019-01-17T14:08:30.636Z,9.40
2019-01-17T14:11:00.452Z,9.50
2019-01-17T14:13:30.655Z,9.70
2019-01-17T14:16:19.845Z,9.90
2019-01-17T14:18:51.444Z,9.80
2019-01-17T14:21:25.409Z,9.50
2019-01-17T14:23:53.321Z,9.20
2019-01-17T14:26:23.123Z,8.80
2019-01-17T14:28:54.224Z,8.50
2019-01-17T14:31:24.470Z,8.20
2019-01-17T14:33:54.307Z,8.00
2019-01-17T14:36:24.093Z,7.90
2019-01-17T14:38:53.976Z,7.90
2019-01-17T14:41:23.788Z,7.80
2019-01-17T14:43:53.618Z,7.70
2019-01-17T14:46:24.159Z,7.50
2019-01-17T14:48:54.060Z,7.40
2019-01-17T14:51:23.860Z,7.20
2019-01-17T14:53:53.670Z,7.10
2019-01-17T14:56:23.690Z,7.00
2019-01-17T14:58:57.634Z,6.90
2019-01-17T15:01:27.422Z,6.80
2019-01-17T15:03:57.658Z,6.80
2019-01-17T15:06:28.821Z,6.70
2019-01-17T15:09:01.447Z,6.70
2019-01-17T15:11:43.848Z,6.60
2019-01-17T15:14:25.089Z,6.50
2019-01-17T15:17:22.664Z,6.40
2019-01-17T15:20:06.368Z,6.40
2019-01-17T15:22:49.842Z,6.30
2019-01-17T15:28:18.041Z,6.40
2019-01-17T15:30:48.273Z,6.40
2019-01-17T15:33:22.401Z,6.40
2019-01-17T15:35:55.200Z,6.40
2019-01-17T15:38:27.302Z,6.50
2019-01-17T15:40:59.754Z,6.40
2019-01-17T15:43:32.032Z,6.30
2019-01-17T15:46:03.399Z,6.50
2019-01-17T15:48:35.349Z,6.50
2019-01-17T15:51:09.758Z,6.50
2019-01-17T15:53:42.534Z,6.50
2019-01-17T15:56:20.066Z,6.40
2019-01-17T15:58:53.559Z,6.50
2019-01-17T16:04:15.399Z,6.50
2019-01-17T16:06:47.005Z,6.60
2019-01-17T16:09:19.182Z,6.50
2019-01-17T16:11:52.287Z,6.40
2019-01-17T16:14:24.452Z,6.40
2019-01-17T16:17:00.051Z,6.40
2019-01-17T16:19:53.600Z,6.40
2019-01-17T16:22:38.562Z,6.40
2019-01-17T16:25:21.667Z,6.40
2019-01-17T16:28:06.271Z,6.40
2019-01-17T16:30:53.340Z,6.40
2019-01-17T16:33:36.699Z,6.50
2019-01-17T16:36:20.563Z,6.60
2019-01-17T16:39:05.964Z,6.70
2019-01-17T16:41:39.968Z,6.70
2019-01-17T16:44:09.970Z,6.80
2019-01-17T16:46:40.587Z,6.80
2019-01-17T16:49:10.593Z,6.80
2019-01-17T16:51:40.774Z,6.80
2019-01-17T16:54:10.863Z,6.80
2019-01-17T16:56:42.694Z,6.70
2019-01-17T16:59:13.437Z,6.60
2019-01-17T17:01:43.456Z,6.60
2019-01-17T17:04:16.032Z,6.60
2019-01-17T17:06:47.432Z,6.50
2019-01-17T17:09:18.520Z,6.50
2019-01-17T17:11:48.612Z,6.40
2019-01-17T17:14:19.006Z,6.30
2019-01-17T17:16:49.324Z,6.20
2019-01-17T17:19:20.636Z,6.10
2019-01-17T17:21:50.662Z,6.10
2019-01-17T17:24:24.196Z,6.10
2019-01-17T17:26:56.205Z,6.10
2019-01-17T17:29:26.600Z,6.00
2019-01-17T17:31:56.720Z,6.00
2019-01-17T17:34:27.005Z,6.10
2019-01-17T17:36:57.116Z,6.10
2019-01-17T17:39:29.888Z,6.30
2019-01-17T17:41:59.976Z,6.30
2019-01-17T17:44:30.173Z,6.30
2019-01-17T17:47:00.125Z,6.20
2019-01-17T17:49:30.412Z,6.10
2019-01-17T17:52:00.684Z,6.00
2019-01-17T17:54:30.966Z,5.90
2019-01-17T17:57:02.124Z,6.00
2019-01-17T17:59:32.224Z,6.00
2019-01-17T18:02:04.107Z,6.10
2019-01-17T18:04:34.216Z,6.10
2019-01-17T18:07:04.328Z,6.20
2019-01-17T18:09:34.500Z,6.30
2019-01-17T18:12:04.631Z,6.30
2019-01-17T18:14:34.553Z,6.30
2019-01-17T18:17:04.802Z,6.30
2019-01-17T18:19:36.386Z,6.30
2019-01-17T18:22:10.980Z,6.40
2019-01-17T18:24:41.176Z,6.30
2019-01-17T18:27:11.286Z,6.30
2019-01-17T18:29:41.362Z,6.40
2019-01-17T18:32:11.701Z,6.50
2019-01-17T18:34:42.102Z,6.50
2019-01-17T18:37:12.491Z,6.50
2019-01-17T18:39:42.772Z,6.50
2019-01-17T18:42:13.130Z,6.60
2019-01-17T18:44:43.742Z,6.70
2019-01-17T18:47:14.006Z,6.80
2019-01-17T18:49:44.175Z,6.90
2019-01-17T18:52:14.795Z,6.90
2019-01-17T18:54:44.932Z,6.90
2019-01-17T18:57:15.340Z,6.90
2019-01-17T18:59:46.282Z,6.90
2019-01-17T19:02:16.575Z,7.00
2019-01-17T19:04:48.254Z,7.00
2019-01-17T19:07:18.936Z,7.00
2019-01-17T19:09:49.350Z,6.90
2019-01-17T19:12:19.716Z,6.80
2019-01-17T19:14:50.894Z,6.80
2019-01-17T19:17:37.763Z,6.90
2019-01-17T19:20:14.610Z,7.00
2019-01-17T19:22:46.742Z,7.10
2019-01-17T19:25:17.183Z,7.10
2019-01-17T19:27:49.125Z,7.20
2019-01-17T19:30:27.475Z,7.20
2019-01-17T19:32:58.438Z,7.20
2019-01-17T19:35:29.638Z,7.30
2019-01-17T19:38:00.933Z,7.30
2019-01-17T19:40:32.047Z,7.30
2019-01-17T19:43:13.048Z,7.30
2019-01-17T19:45:44.247Z,7.30
2019-01-17T19:48:16.363Z,7.30
2019-01-17T19:50:48.018Z,7.30
2019-01-17T19:53:19.448Z,7.30
2019-01-17T19:55:51.634Z,7.30
2019-01-17T19:58:28.815Z,7.30
2019-01-17T20:00:55.401Z,7.30
2019-01-17T20:03:29.254Z,7.30
2019-01-17T20:06:00.247Z,7.30
2019-01-17T20:08:30.599Z,7.30
2019-01-17T20:11:02.540Z,7.40
2019-01-17T20:13:36.602Z,7.40
2019-01-17T20:16:07.850Z,7.40
2019-01-17T20:18:40.088Z,7.40
2019-01-17T20:21:10.610Z,7.40
2019-01-17T20:23:42.412Z,7.30
2019-01-17T20:26:13.089Z,7.40
2019-01-17T20:28:46.080Z,7.40
2019-01-17T20:31:17.296Z,7.30
2019-01-17T20:33:48.164Z,7.40
2019-01-17T20:48:32.955Z,7.40
2019-01-17T20:51:03.626Z,7.70
2019-01-17T20:53:34.903Z,7.70
2019-01-17T20:56:05.191Z,7.60
2019-01-17T20:58:42.259Z,7.70
2019-01-17T21:01:30.726Z,7.70
2019-01-17T21:04:04.303Z,7.60
2019-01-17T21:06:37.039Z,7.80
2019-01-17T21:09:10.355Z,7.80
2019-01-17T21:11:42.065Z,7.90
2019-01-17T21:14:13.259Z,7.80
2019-01-17T21:16:44.696Z,7.80
2019-01-17T21:19:14.969Z,8.00
2019-01-17T21:21:46.896Z,8.00
2019-01-17T21:24:16.820Z,8.00
2019-01-17T21:26:47.359Z,8.10
2019-01-17T21:29:19.086Z,8.20
2019-01-17T21:31:50.640Z,8.20
2019-01-17T21:34:21.344Z,8.30
2019-01-17T21:36:51.571Z,8.30
2019-01-17T21:39:21.468Z,8.30
2019-01-17T21:41:52.544Z,8.30
2019-01-17T21:44:22.997Z,8.30
2019-01-17T21:46:54.521Z,8.40
2019-01-17T21:49:24.871Z,8.40
2019-01-17T21:51:55.013Z,8.40
2019-01-17T21:54:27.816Z,8.40
2019-01-17T21:56:58.593Z,8.30
2019-01-17T21:59:28.578Z,8.30
2019-01-17T22:01:59.008Z,8.30
2019-01-17T22:04:29.089Z,8.30
2019-01-17T22:06:59.830Z,8.20
2019-01-17T22:09:29.878Z,8.20
2019-01-17T22:11:59.976Z,8.20
2019-01-17T22:14:29.844Z,8.20
2019-01-17T22:16:59.867Z,8.20
2019-01-17T22:19:30.710Z,8.10
2019-01-17T22:22:01.386Z,8.10
2019-01-17T22:24:31.661Z,8.10
2019-01-17T22:27:02.016Z,8.10
2019-01-17T22:29:32.619Z,8.00
2019-01-17T22:32:03.221Z,8.00
2019-01-17T22:34:33.610Z,7.90
2019-01-17T22:37:04.028Z,7.90
2019-01-17T22:39:46.817Z,7.90
2019-01-17T22:42:17.075Z,7.90
2019-01-17T22:44:47.076Z,7.90
2019-01-17T22:47:17.924Z,8.00
2019-01-17T22:49:49.363Z,8.00
2019-01-17T22:52:19.614Z,7.90
2019-01-17T22:54:49.934Z,7.80
2019-01-17T22:57:20.250Z,7.90
2019-01-17T22:59:50.160Z,7.90
2019-01-17T23:02:20.873Z,7.80
2019-01-17T23:04:51.350Z,7.80
2019-01-17T23:07:22.366Z,7.80
2019-01-17T23:09:52.698Z,7.80
2019-01-17T23:12:24.266Z,7.70
2019-01-17T23:14:55.551Z,7.70
2019-01-17T23:17:26.307Z,7.70
2019-01-17T23:19:56.456Z,7.60
2019-01-17T23:22:26.555Z,7.50
2019-01-17T23:24:57.398Z,7.40
2019-01-17T23:27:28.139Z,7.50
2019-01-17T23:29:58.070Z,7.50
2019-01-17T23:32:28.021Z,7.50
2019-01-17T23:34:58.199Z,7.40
2019-01-17T23:37:28.260Z,7.40
2019-01-17T23:39:58.151Z,7.40
2019-01-17T23:42:29.690Z,7.30
2019-01-17T23:44:59.674Z,7.30
2019-01-17T23:47:30.708Z,7.30
2019-01-17T23:50:00.823Z,7.30
2019-01-17T23:52:30.782Z,7.30
2019-01-17T23:55:00.669Z,7.30
2019-01-17T23:57:32.118Z,7.30
